createdAt,value
2023-05-23T00:01:45.613Z,21.77
2023-05-23T00:04:48.329Z,21.88
2023-05-23T00:07:50.199Z,19.77
2023-05-23T00:10:53.453Z,15.95
2023-05-23T00:13:57.603Z,24.65
2023-05-23T00:17:00.535Z,15.57
2023-05-23T00:20:03.027Z,16.48
2023-05-23T00:23:08.122Z,21.90
2023-05-23T00:26:11.503Z,18.48
2023-05-23T00:29:16.917Z,17.45
2023-05-23T00:32:19.920Z,18.38
2023-05-23T00:35:21.950Z,22.35
2023-05-23T00:38:23.734Z,19.52
2023-05-23T00:41:28.604Z,16.90
2023-05-23T00:44:30.781Z,20.75
2023-05-23T00:47:32.937Z,18.33
2023-05-23T00:50:36.239Z,18.85
2023-05-23T00:53:38.913Z,21.52
2023-05-23T00:56:44.001Z,17.85
2023-05-23T00:59:48.085Z,19.42
2023-05-23T01:02:53.649Z,23.58
2023-05-23T01:05:56.068Z,15.90
2023-05-23T01:09:01.958Z,18.90
2023-05-23T01:12:17.314Z,18.92
2023-05-23T01:15:21.779Z,21.70
2023-05-23T01:18:30.663Z,25.85
2023-05-23T01:21:34.255Z,19.98
2023-05-23T01:24:40.932Z,20.58
2023-05-23T01:27:53.207Z,17.80
2023-05-23T01:30:58.710Z,15.18
2023-05-23T01:34:03.543Z,19.80
2023-05-23T01:37:09.836Z,18.30
2023-05-23T01:40:12.744Z,18.42
2023-05-23T01:43:16.179Z,19.85
2023-05-23T01:46:22.702Z,20.90
2023-05-23T01:49:24.979Z,19.48
2023-05-23T01:52:26.944Z,18.70
2023-05-23T01:55:29.382Z,21.15
2023-05-23T01:58:32.760Z,18.00
2023-05-23T02:01:35.024Z,21.65
2023-05-23T02:04:37.680Z,19.67
2023-05-23T02:07:39.789Z,19.05
2023-05-23T02:10:41.667Z,18.02
2023-05-23T02:13:45.000Z,20.05
2023-05-23T02:16:52.798Z,20.65
2023-05-23T02:19:55.600Z,17.88
2023-05-23T02:22:57.474Z,16.60
2023-05-23T02:25:59.315Z,16.50
2023-05-23T02:29:03.092Z,18.38
2023-05-23T02:32:05.554Z,21.67
2023-05-23T02:35:08.478Z,20.05
2023-05-23T02:38:10.509Z,24.00
2023-05-23T02:41:12.733Z,17.92
2023-05-23T02:44:19.683Z,14.57
2023-05-23T02:47:21.570Z,18.52
2023-05-23T02:50:23.805Z,18.08
2023-05-23T02:53:28.119Z,24.27
2023-05-23T02:56:29.955Z,18.77
2023-05-23T02:59:34.082Z,17.80
2023-05-23T03:02:36.039Z,20.33
2023-05-23T03:05:38.891Z,25.08
2023-05-23T03:08:41.771Z,19.77
2023-05-23T03:11:43.861Z,19.23
2023-05-23T03:14:47.096Z,18.55
2023-05-23T03:17:49.073Z,29.40
2023-05-23T03:20:51.003Z,18.20
2023-05-23T03:23:53.501Z,17.27
2023-05-23T03:26:55.920Z,20.08
2023-05-23T03:29:59.237Z,18.92
2023-05-23T03:33:02.161Z,20.48
2023-05-23T03:36:04.415Z,22.40
2023-05-23T03:39:06.490Z,17.52
2023-05-23T03:42:08.539Z,19.65
2023-05-23T03:45:12.478Z,20.05
2023-05-23T03:48:14.431Z,19.30
2023-05-23T03:51:16.418Z,19.90
2023-05-23T03:54:18.455Z,22.20
2023-05-23T03:57:20.422Z,18.95
2023-05-23T04:00:23.854Z,17.30
2023-05-23T04:03:27.489Z,20.02
2023-05-23T04:06:31.413Z,22.73
2023-05-23T04:09:33.325Z,18.55
2023-05-23T04:12:35.680Z,27.55
2023-05-23T04:15:41.433Z,22.52
2023-05-23T04:18:47.576Z,17.00
2023-05-23T04:21:49.739Z,20.33
2023-05-23T04:24:51.631Z,18.27
2023-05-23T04:27:57.525Z,22.98
2023-05-23T04:31:02.863Z,22.95
2023-05-23T04:34:04.858Z,18.95
2023-05-23T04:37:07.299Z,19.58
2023-05-23T04:40:09.892Z,19.00
2023-05-23T04:43:14.436Z,18.02
2023-05-23T04:46:22.226Z,22.52
2023-05-23T04:49:24.142Z,17.50
2023-05-23T04:52:27.674Z,21.92
2023-05-23T04:55:29.811Z,19.83
2023-05-23T04:58:32.256Z,20.60
2023-05-23T05:01:35.591Z,18.33
2023-05-23T05:04:38.252Z,19.38
2023-05-23T05:07:40.532Z,22.55
2023-05-23T05:10:43.285Z,30.92
2023-05-23T05:13:45.149Z,26.42
2023-05-23T05:16:50.320Z,19.77
2023-05-23T05:19:53.124Z,18.60
2023-05-23T05:22:58.397Z,19.35
2023-05-23T05:26:01.119Z,22.45
2023-05-23T05:29:03.098Z,17.98
2023-05-23T05:32:09.172Z,20.00
2023-05-23T05:35:14.074Z,24.05
2023-05-23T05:38:16.150Z,21.38
2023-05-23T05:41:18.009Z,19.40
2023-05-23T05:44:20.064Z,21.75
2023-05-23T05:47:23.267Z,19.35
2023-05-23T05:50:26.101Z,24.40
2023-05-23T05:53:27.933Z,21.92
2023-05-23T05:56:29.922Z,15.55
2023-05-23T05:59:32.606Z,17.75
2023-05-23T06:02:36.795Z,21.38
2023-05-23T06:05:39.774Z,26.88
2023-05-23T06:08:42.817Z,24.58
2023-05-23T06:11:44.696Z,23.52
2023-05-23T06:14:46.521Z,31.33
2023-05-23T06:17:51.541Z,18.48
2023-05-23T06:20:53.442Z,20.17
2023-05-23T06:23:56.028Z,19.42
2023-05-23T06:26:57.824Z,21.83
2023-05-23T06:29:59.657Z,20.75
2023-05-23T06:33:03.475Z,18.65
2023-05-23T06:36:05.561Z,16.73
2023-05-23T06:39:10.052Z,17.15
2023-05-23T06:42:11.967Z,17.90
2023-05-23T06:45:16.372Z,21.35
2023-05-23T06:48:19.937Z,18.90
2023-05-23T06:51:21.957Z,15.57
2023-05-23T06:54:23.900Z,15.18
2023-05-23T06:57:25.898Z,16.40
2023-05-23T07:00:31.634Z,17.85
2023-05-23T07:03:38.530Z,21.42
2023-05-23T07:06:40.615Z,21.45
2023-05-23T07:09:42.990Z,22.63
2023-05-23T07:12:44.869Z,22.00
2023-05-23T07:15:46.708Z,19.42
2023-05-23T07:18:49.915Z,25.23
2023-05-23T07:21:51.819Z,23.15
2023-05-23T07:24:53.891Z,17.00
2023-05-23T07:27:56.089Z,19.85
2023-05-23T07:30:59.104Z,22.35
2023-05-23T07:34:02.769Z,23.05
2023-05-23T07:37:04.976Z,22.50
2023-05-23T07:40:09.570Z,22.33
2023-05-23T07:43:11.428Z,25.88
2023-05-23T07:46:16.805Z,21.70
2023-05-23T07:49:20.137Z,22.80
2023-05-23T07:52:22.800Z,20.80
2023-05-23T07:55:24.668Z,22.52
2023-05-23T07:58:26.658Z,27.92
2023-05-23T08:01:28.559Z,21.30
2023-05-23T08:04:34.633Z,26.08
2023-05-23T08:07:36.563Z,23.88
2023-05-23T08:10:40.217Z,20.00
2023-05-23T08:13:42.774Z,27.38
2023-05-23T08:16:44.720Z,24.83
2023-05-23T08:19:48.132Z,22.48
2023-05-23T08:22:49.950Z,30.15
2023-05-23T08:25:52.746Z,25.05
2023-05-23T08:28:54.699Z,22.23
2023-05-23T08:31:56.720Z,26.63
2023-05-23T08:35:00.106Z,23.95
2023-05-23T08:38:02.272Z,23.48
2023-05-23T08:41:12.959Z,21.35
2023-05-23T08:44:15.958Z,20.77
2023-05-23T08:47:19.951Z,22.02
2023-05-23T08:50:25.241Z,21.35
2023-05-23T08:53:29.146Z,23.52
2023-05-23T08:56:31.717Z,22.48
2023-05-23T08:59:35.355Z,24.73
2023-05-23T09:02:38.134Z,25.33
2023-05-23T09:05:42.385Z,24.13
2023-05-23T09:08:46.262Z,22.38
2023-05-23T09:11:48.700Z,26.77
2023-05-23T09:14:50.886Z,22.17
2023-05-23T09:17:53.876Z,24.80
2023-05-23T09:20:57.715Z,19.65
2023-05-23T09:24:00.973Z,24.23
2023-05-23T09:27:03.501Z,21.13
2023-05-23T09:30:06.886Z,23.65
2023-05-23T09:33:09.652Z,27.17
2023-05-23T09:36:12.974Z,25.52
2023-05-23T09:39:14.965Z,25.67
2023-05-23T09:42:22.202Z,19.50
2023-05-23T09:45:30.302Z,23.90
2023-05-23T09:48:33.545Z,23.45
2023-05-23T09:51:37.672Z,20.00
2023-05-23T09:54:39.778Z,21.98
2023-05-23T09:57:44.205Z,26.05
2023-05-23T10:00:48.821Z,24.75
2023-05-23T10:03:54.753Z,20.83
2023-05-23T10:07:05.374Z,22.73
2023-05-23T10:10:10.659Z,20.48
2023-05-23T10:13:13.568Z,26.73
2023-05-23T10:16:21.509Z,24.45
2023-05-23T10:19:28.393Z,21.38
2023-05-23T10:22:33.039Z,21.75
2023-05-23T10:25:37.249Z,26.40
2023-05-23T10:28:40.905Z,23.00
2023-05-23T10:31:44.260Z,21.75
2023-05-23T10:34:56.575Z,19.13
2023-05-23T10:38:17.714Z,18.17
2023-05-23T10:41:27.081Z,16.17
2023-05-23T10:44:31.219Z,16.50
2023-05-23T10:47:34.322Z,18.08
2023-05-23T10:50:41.731Z,22.27
2023-05-23T10:53:47.008Z,16.08
2023-05-23T11:00:12.178Z,20.48
2023-05-23T11:03:14.281Z,18.35
2023-05-23T11:06:30.085Z,18.92
2023-05-23T11:09:33.363Z,24.75
2023-05-23T11:12:37.862Z,18.67
2023-05-23T11:15:43.674Z,21.52
2023-05-23T11:18:46.617Z,20.85
2023-05-23T11:21:50.869Z,25.02
2023-05-23T11:24:55.220Z,21.60
2023-05-23T11:27:57.225Z,22.13
2023-05-23T11:30:59.332Z,18.40
2023-05-23T11:34:01.720Z,17.50
2023-05-23T11:37:03.981Z,20.23
2023-05-23T11:40:32.850Z,26.83
2023-05-23T11:43:34.827Z,18.88
2023-05-23T11:46:37.306Z,15.63
2023-05-23T11:49:40.459Z,22.85
2023-05-23T11:52:42.628Z,17.05
2023-05-23T11:55:54.465Z,19.77
2023-05-23T11:58:57.593Z,24.10
2023-05-23T12:02:02.762Z,18.63
2023-05-23T12:05:08.334Z,17.98
2023-05-23T12:08:12.274Z,16.13
2023-05-23T12:11:15.972Z,16.58
2023-05-23T12:14:18.546Z,18.65
2023-05-23T12:17:20.599Z,18.13
2023-05-23T12:20:22.961Z,22.20
2023-05-23T12:23:25.519Z,17.60
2023-05-23T12:26:29.531Z,19.20
2023-05-23T12:29:34.833Z,18.02
2023-05-23T12:32:40.674Z,21.25
2023-05-23T12:35:45.752Z,17.58
2023-05-23T12:38:47.640Z,16.40
2023-05-23T12:41:51.462Z,18.13
2023-05-23T12:44:54.157Z,22.58
2023-05-23T12:47:56.214Z,16.08
2023-05-23T12:50:58.201Z,19.05
2023-05-23T12:54:00.231Z,16.20
2023-05-23T12:57:03.719Z,24.45
2023-05-23T13:00:07.168Z,25.50
2023-05-23T13:03:09.706Z,20.30
2023-05-23T13:06:12.075Z,20.27
2023-05-23T13:09:13.936Z,23.83
2023-05-23T13:12:17.570Z,18.83
2023-05-23T13:15:19.546Z,15.93
2023-05-23T13:18:21.450Z,17.40
2023-05-23T13:21:24.077Z,16.95
2023-05-23T13:24:26.091Z,22.17
2023-05-23T13:27:29.603Z,16.85
2023-05-23T13:30:31.765Z,19.77
2023-05-23T13:33:33.735Z,15.65
2023-05-23T13:36:36.194Z,19.15
2023-05-23T13:39:38.063Z,21.70
2023-05-23T13:42:41.396Z,18.65
2023-05-23T13:45:43.274Z,19.73
2023-05-23T13:48:45.100Z,22.05
2023-05-23T13:51:48.286Z,22.08
2023-05-23T13:54:50.284Z,19.80
2023-05-23T13:57:54.382Z,16.92
2023-05-23T14:00:56.246Z,16.98
2023-05-23T14:03:58.930Z,19.67
2023-05-23T14:07:00.787Z,17.20
2023-05-23T14:10:03.081Z,19.08
2023-05-23T14:13:06.387Z,17.85
2023-05-23T14:16:09.049Z,15.80
2023-05-23T14:19:11.007Z,17.27
2023-05-23T14:22:13.920Z,15.75
2023-05-23T14:25:16.054Z,20.88
2023-05-23T14:28:19.394Z,20.85
2023-05-23T14:31:22.366Z,16.70
2023-05-23T14:34:24.197Z,16.90
2023-05-23T14:37:26.879Z,21.08
2023-05-23T14:40:28.731Z,13.90
2023-05-23T14:43:32.021Z,14.25
2023-05-23T14:46:34.835Z,18.48
2023-05-23T14:49:36.895Z,13.50
2023-05-23T14:52:38.811Z,18.85
2023-05-23T14:55:41.386Z,18.67
2023-05-23T14:58:46.004Z,17.20
2023-05-23T15:01:48.107Z,17.60
2023-05-23T15:04:50.788Z,19.85
2023-05-23T15:07:52.659Z,16.10
2023-05-23T15:10:54.555Z,19.15
2023-05-23T15:13:57.790Z,19.25
2023-05-23T15:17:07.766Z,16.38
2023-05-23T15:20:10.841Z,17.38
2023-05-23T15:23:12.773Z,16.38
2023-05-23T15:26:14.743Z,16.08
2023-05-23T15:29:18.392Z,20.40
2023-05-23T15:32:20.434Z,20.45
2023-05-23T15:35:22.926Z,20.38
2023-05-23T15:38:24.800Z,18.55
2023-05-23T15:41:26.732Z,15.68
2023-05-23T15:44:30.170Z,19.13
2023-05-23T15:47:32.807Z,15.88
2023-05-23T15:50:34.750Z,15.30
2023-05-23T15:53:47.904Z,17.77
2023-05-23T15:56:58.523Z,14.50
2023-05-23T16:00:02.220Z,25.38
2023-05-23T16:03:04.299Z,16.27
2023-05-23T16:06:06.748Z,21.15
2023-05-23T16:09:08.949Z,16.05
2023-05-23T16:12:10.856Z,18.75
2023-05-23T16:15:14.318Z,16.98
2023-05-23T16:18:16.238Z,56.10
2023-05-23T16:21:20.770Z,26.73
2023-05-23T16:24:24.422Z,18.02
2023-05-23T16:27:26.306Z,16.73
2023-05-23T16:30:29.563Z,28.60
2023-05-23T16:33:31.783Z,16.42
2023-05-23T16:36:33.711Z,14.50
2023-05-23T16:39:35.606Z,13.90
2023-05-23T16:42:37.495Z,17.35
2023-05-23T16:45:42.118Z,22.52
2023-05-23T16:48:44.620Z,32.25
2023-05-23T16:51:48.562Z,18.17
2023-05-23T16:54:50.809Z,21.40
2023-05-23T16:57:53.305Z,14.38
2023-05-23T17:00:57.017Z,17.40
2023-05-23T17:03:59.028Z,15.43
2023-05-23T17:07:01.711Z,15.23
2023-05-23T17:10:03.691Z,32.65
2023-05-23T17:13:06.469Z,32.80
2023-05-23T17:16:09.897Z,35.53
2023-05-23T17:19:11.797Z,22.30
2023-05-23T17:22:14.544Z,22.83
2023-05-23T17:25:16.469Z,32.42
2023-05-23T17:28:18.454Z,22.52
2023-05-23T17:31:21.787Z,27.27
2023-05-23T17:34:23.662Z,24.85
2023-05-23T17:37:26.557Z,26.08
2023-05-23T17:40:28.509Z,30.95
2023-05-23T17:43:30.628Z,19.88
2023-05-23T17:46:34.295Z,26.17
2023-05-23T17:49:37.926Z,25.90
2023-05-23T17:52:40.579Z,24.25
2023-05-23T17:55:42.416Z,39.60
2023-05-23T17:58:44.585Z,23.77
2023-05-23T18:01:48.028Z,27.60
2023-05-23T18:04:50.473Z,27.88
2023-05-23T18:07:52.716Z,22.60
2023-05-23T18:10:54.531Z,29.52
2023-05-23T18:13:56.505Z,27.83
2023-05-23T18:16:59.855Z,23.30
2023-05-23T18:20:02.261Z,26.85
2023-05-23T18:23:04.738Z,18.92
2023-05-23T18:26:06.653Z,19.10
2023-05-23T18:29:08.600Z,21.85
2023-05-23T18:32:14.547Z,19.92
2023-05-23T18:35:16.540Z,21.98
2023-05-23T18:38:19.309Z,22.80
2023-05-23T18:41:22.381Z,27.48
2023-05-23T18:44:24.193Z,25.30
2023-05-23T18:47:27.722Z,29.08
2023-05-23T18:50:29.860Z,20.17
2023-05-23T18:53:32.578Z,25.65
2023-05-23T18:56:34.571Z,25.05
2023-05-23T18:59:36.837Z,17.88
2023-05-23T19:02:44.285Z,19.33
2023-05-23T19:05:46.457Z,24.00
2023-05-23T19:08:49.224Z,26.52
2023-05-23T19:11:51.055Z,31.15
2023-05-23T19:14:52.980Z,26.90
2023-05-23T19:17:56.270Z,29.73
2023-05-23T19:20:58.248Z,28.67
2023-05-23T19:24:00.225Z,23.45
2023-05-23T19:27:02.452Z,26.48
2023-05-23T19:30:04.991Z,31.02
2023-05-23T19:33:08.701Z,34.22
2023-05-23T19:36:10.609Z,25.65
2023-05-23T19:39:13.074Z,29.05
2023-05-23T19:42:14.980Z,31.52
2023-05-23T19:45:17.466Z,27.08
2023-05-23T19:48:20.752Z,32.17
2023-05-23T19:51:23.213Z,38.92
2023-05-23T19:54:25.217Z,30.25
2023-05-23T19:57:27.050Z,30.48
2023-05-23T20:00:29.025Z,28.85
2023-05-23T20:03:32.265Z,19.85
2023-05-23T20:06:35.243Z,29.08
2023-05-23T20:09:37.656Z,22.55
2023-05-23T20:12:40.345Z,21.50
2023-05-23T20:15:42.612Z,23.27
2023-05-23T20:18:45.874Z,23.98
2023-05-23T20:21:47.764Z,21.45
2023-05-23T20:24:50.009Z,26.27
2023-05-23T20:27:51.905Z,26.33
2023-05-23T20:30:53.806Z,28.27
2023-05-23T20:33:57.106Z,25.05
2023-05-23T20:36:59.027Z,31.73
2023-05-23T20:40:00.852Z,27.77
2023-05-23T20:43:05.166Z,31.33
2023-05-23T20:46:09.344Z,29.40
2023-05-23T20:49:14.324Z,26.13
2023-05-23T20:52:16.401Z,28.63
2023-05-23T20:55:18.967Z,30.23
2023-05-23T20:58:21.733Z,32.63
2023-05-23T21:01:26.419Z,28.73
2023-05-23T21:04:29.736Z,27.60
2023-05-23T21:07:32.306Z,28.13
2023-05-23T21:10:34.378Z,35.28
2023-05-23T21:13:39.786Z,31.73
2023-05-23T21:16:41.984Z,30.65
2023-05-23T21:19:45.281Z,34.05
2023-05-23T21:22:48.193Z,32.03
2023-05-23T21:25:50.072Z,40.78
2023-05-23T21:28:51.930Z,32.60
2023-05-23T21:31:55.086Z,30.55
2023-05-23T21:34:58.602Z,35.53
2023-05-23T21:38:00.564Z,30.98
2023-05-23T21:41:02.363Z,31.33
2023-05-23T21:44:04.305Z,29.60
2023-05-23T21:47:06.334Z,32.38
2023-05-23T21:50:11.381Z,30.60
2023-05-23T21:53:13.313Z,30.67
2023-05-23T21:56:15.164Z,36.28
2023-05-23T21:59:17.860Z,28.95
2023-05-23T22:02:19.719Z,34.40
2023-05-23T22:05:23.249Z,34.63
2023-05-23T22:08:25.019Z,34.20
2023-05-23T22:11:33.960Z,34.53
2023-05-23T22:14:36.211Z,34.22
2023-05-23T22:17:38.232Z,38.25
2023-05-23T22:20:42.336Z,33.13
2023-05-23T22:23:44.365Z,36.83
2023-05-23T22:26:46.285Z,35.58
2023-05-23T22:29:48.821Z,40.90
2023-05-23T22:32:51.002Z,38.33
2023-05-23T22:35:54.349Z,36.58
2023-05-23T22:38:56.582Z,43.05
2023-05-23T22:41:58.768Z,33.53
2023-05-23T22:45:00.755Z,41.28
2023-05-23T22:48:02.732Z,35.72
2023-05-23T22:51:08.033Z,39.95
2023-05-23T22:54:10.043Z,27.95
2023-05-23T22:57:12.638Z,32.25
2023-05-23T23:00:15.028Z,35.33
2023-05-23T23:03:17.811Z,35.28
2023-05-23T23:06:21.137Z,34.55
2023-05-23T23:09:23.143Z,40.33
2023-05-23T23:12:25.614Z,40.97
2023-05-23T23:15:30.234Z,41.83
2023-05-23T23:18:32.684Z,37.55
2023-05-23T23:21:36.216Z,42.22
2023-05-23T23:24:38.160Z,37.20
2023-05-23T23:27:40.597Z,40.28
2023-05-23T23:30:43.916Z,38.17
2023-05-23T23:33:46.829Z,41.47
2023-05-23T23:36:50.137Z,33.50
2023-05-23T23:39:52.673Z,33.10
2023-05-23T23:42:54.592Z,27.20
2023-05-23T23:45:56.403Z,32.70
2023-05-23T23:48:58.560Z,32.85
2023-05-23T23:52:01.864Z,27.75
2023-05-23T23:55:05.295Z,24.77
2023-05-23T23:58:07.183Z,36.67
